Time;durP1;ratioP1;P1;durP2;ratioP2;P2;SDS_P1;SDS_P2;PMS_P1;PMS_P2;Temp;Humidity;BMP_temperature;BMP_pressure;BME280_temperature;BME280_humidity;BME280_pressure;Samples;Min_cycle;Max_cycle;Signal;HPM_P1;HPM_P2
2022/06/18 00:01:56;;;;;;;10.77;8.25;;;;;;;;;;4974523;28;20050;-80
2022/06/18 00:04:24;;;;;;;10.82;8.52;;;;;;;;;;4974349;28;20125;-80
2022/06/18 00:06:54;;;;;;;9.65;7.80;;;;;;;;;;4974726;28;20050;-80
2022/06/18 00:09:22;;;;;;;10.75;8.23;;;;;;;;;;4971905;28;20053;-79
2022/06/18 00:14:40;;;;;;;8.77;7.97;;;;;;;;;;4974819;28;20047;-80
2022/06/18 00:17:14;;;;;;;10.35;8.80;;;;;;;;;;4974297;28;20094;-80
2022/06/18 00:19:40;;;;;;;9.75;8.40;;;;;;;;;;4955640;28;20067;-79
2022/06/18 00:22:06;;;;;;;11.10;8.07;;;;;;;;;;4974426;28;20057;-79
2022/06/18 00:24:32;;;;;;;10.90;8.07;;;;;;;;;;4973807;28;20042;-79
2022/06/18 00:26:58;;;;;;;10.73;8.23;;;;;;;;;;4968501;28;20050;-80
2022/06/18 00:29:24;;;;;;;12.40;8.07;;;;;;;;;;4937860;29;20043;-80
2022/06/18 00:31:50;;;;;;;11.23;8.32;;;;;;;;;;4954717;29;20043;-79
2022/06/18 00:34:16;;;;;;;8.95;8.05;;;;;;;;;;4961486;28;20405;-79
2022/06/18 00:36:43;;;;;;;10.77;8.30;;;;;;;;;;4956613;28;20488;-80
2022/06/18 00:39:13;;;;;;;10.15;8.60;;;;;;;;;;4973794;28;20051;-81
2022/06/18 00:41:42;;;;;;;10.38;8.63;;;;;;;;;;4954627;28;20048;-80
2022/06/18 00:44:15;;;;;;;9.43;8.45;;;;;;;;;;4959612;28;20108;-80
2022/06/18 00:46:44;;;;;;;13.00;7.93;;;;;;;;;;5032465;23;20031;-78
2022/06/18 00:49:29;;;;;;;11.05;8.60;;;;;;;;;;4999972;28;20031;-78
2022/06/18 00:52:05;;;;;;;10.30;8.77;;;;;;;;;;5000733;28;20058;-77
2022/06/18 00:54:37;;;;;;;10.52;9.02;;;;;;;;;;5000824;28;20030;-77
2022/06/18 00:57:09;;;;;;;9.98;8.98;;;;;;;;;;4999769;28;20034;-78
2022/06/18 00:59:54;;;;;;;10.90;9.65;;;;;;;;;;4967789;28;20046;-77
2022/06/18 01:02:22;;;;;;;11.65;9.73;;;;;;;;;;4967801;28;20027;-77
2022/06/18 01:04:49;;;;;;;11.40;10.20;;;;;;;;;;5000192;28;20050;-78
2022/06/18 01:07:26;;;;;;;13.63;10.82;;;;;;;;;;4968031;28;20113;-78
2022/06/18 01:09:52;;;;;;;12.77;11.48;;;;;;;;;;5000585;28;20050;-77
2022/06/18 01:12:21;;;;;;;13.60;11.48;;;;;;;;;;5000416;28;20015;-77
2022/06/18 01:14:52;;;;;;;13.90;11.70;;;;;;;;;;4999469;28;20015;-77
2022/06/18 01:17:18;;;;;;;13.73;12.30;;;;;;;;;;4983804;28;20026;-77
2022/06/18 01:19:46;;;;;;;12.75;11.18;;;;;;;;;;4982152;28;20030;-78
2022/06/18 01:22:19;;;;;;;13.52;12.13;;;;;;;;;;4967920;28;20027;-77
2022/06/18 01:24:45;;;;;;;17.52;12.63;;;;;;;;;;5000177;28;20018;-78
2022/06/18 01:27:11;;;;;;;14.13;11.98;;;;;;;;;;5000036;28;20051;-77
2022/06/18 01:29:38;;;;;;;12.30;11.00;;;;;;;;;;4983802;28;20018;-77
2022/06/18 01:32:06;;;;;;;14.65;12.98;;;;;;;;;;4983702;28;20074;-77
2022/06/18 01:34:32;;;;;;;17.58;14.02;;;;;;;;;;4999884;28;20039;-78
2022/06/18 01:36:59;;;;;;;15.48;13.90;;;;;;;;;;4983716;28;20031;-77
2022/06/18 01:39:27;;;;;;;16.85;13.90;;;;;;;;;;4999939;28;20023;-77
2022/06/18 01:42:00;;;;;;;15.27;13.68;;;;;;;;;;4983547;28;20019;-77
2022/06/18 01:44:39;;;;;;;15.45;13.10;;;;;;;;;;5000205;28;20021;-77
2022/06/18 01:47:13;;;;;;;15.05;13.45;;;;;;;;;;4982704;28;20047;-77
2022/06/18 01:49:42;;;;;;;16.63;14.80;;;;;;;;;;4980818;29;20018;-77
2022/06/18 01:52:09;;;;;;;17.95;14.38;;;;;;;;;;4980343;28;20034;-77
2022/06/18 01:54:39;;;;;;;18.70;15.07;;;;;;;;;;4980683;29;20016;-77
2022/06/18 01:57:10;;;;;;;15.90;14.13;;;;;;;;;;4980454;29;20023;-77
2022/06/18 01:59:38;;;;;;;20.00;16.10;;;;;;;;;;4980666;28;20024;-77
2022/06/18 02:02:04;;;;;;;19.23;16.20;;;;;;;;;;4980558;29;20028;-77
2022/06/18 02:04:32;;;;;;;21.02;17.25;;;;;;;;;;4980578;29;20056;-77
2022/06/18 02:06:58;;;;;;;20.38;17.27;;;;;;;;;;4981247;28;20020;-78
2022/06/18 02:09:34;;;;;;;22.27;16.83;;;;;;;;;;4969407;28;20039;-78
2022/06/18 02:12:02;;;;;;;20.17;17.35;;;;;;;;;;5003555;28;20075;-77
2022/06/18 02:14:29;;;;;;;23.67;18.60;;;;;;;;;;5001544;28;20027;-77
2022/06/18 02:16:57;;;;;;;23.90;18.75;;;;;;;;;;4983985;29;20031;-78
2022/06/18 02:19:23;;;;;;;20.02;17.40;;;;;;;;;;4983942;29;20019;-77
2022/06/18 02:21:51;;;;;;;18.92;16.92;;;;;;;;;;4983507;28;20018;-77
2022/06/18 02:24:17;;;;;;;22.70;18.00;;;;;;;;;;4967439;29;20023;-77
2022/06/18 02:26:45;;;;;;;22.30;17.80;;;;;;;;;;4986146;28;20083;-77
2022/06/18 02:29:29;;;;;;;23.13;19.40;;;;;;;;;;4984606;28;20027;-77
2022/06/18 02:31:55;;;;;;;19.83;17.70;;;;;;;;;;4998997;28;20033;-77
2022/06/18 02:34:23;;;;;;;24.15;18.38;;;;;;;;;;5003152;28;20074;-77
2022/06/18 02:36:49;;;;;;;22.60;19.23;;;;;;;;;;5001125;28;20045;-77
2022/06/18 02:39:21;;;;;;;24.77;19.10;;;;;;;;;;4983646;29;20047;-77
2022/06/18 02:41:47;;;;;;;20.80;18.17;;;;;;;;;;4983656;29;20016;-77
2022/06/18 02:44:14;;;;;;;27.63;18.77;;;;;;;;;;4983562;29;20027;-77
2022/06/18 02:46:41;;;;;;;27.35;19.48;;;;;;;;;;4998525;28;20038;-77
2022/06/18 02:49:08;;;;;;;24.20;19.60;;;;;;;;;;5002593;28;20023;-77
2022/06/18 02:51:35;;;;;;;27.10;20.48;;;;;;;;;;4999794;28;20027;-77
2022/06/18 02:54:01;;;;;;;25.48;19.08;;;;;;;;;;4983392;29;20015;-77
2022/06/18 02:56:27;;;;;;;26.05;20.88;;;;;;;;;;4983220;29;20027;-77
2022/06/18 02:58:53;;;;;;;25.38;20.40;;;;;;;;;;4983313;29;20028;-77
2022/06/18 03:01:21;;;;;;;25.30;21.15;;;;;;;;;;4982999;28;20011;-77
2022/06/18 03:03:49;;;;;;;26.67;21.15;;;;;;;;;;4983272;29;20071;-77
2022/06/18 03:06:16;;;;;;;26.17;21.60;;;;;;;;;;4982957;28;20046;-77
2022/06/18 03:08:46;;;;;;;26.35;21.15;;;;;;;;;;5000338;28;20030;-77
2022/06/18 03:13:59;;;;;;;27.42;20.60;;;;;;;;;;4983066;29;20027;-77
2022/06/18 03:16:26;;;;;;;24.77;20.67;;;;;;;;;;4999772;28;20022;-77
2022/06/18 03:18:54;;;;;;;26.05;22.25;;;;;;;;;;5001446;28;20038;-77
2022/06/18 03:21:27;;;;;;;24.90;21.00;;;;;;;;;;5001119;28;20023;-77
2022/06/18 03:23:53;;;;;;;31.85;22.13;;;;;;;;;;4982884;29;20020;-77
2022/06/18 03:26:19;;;;;;;27.77;20.50;;;;;;;;;;4984388;28;20023;-77
2022/06/18 03:28:46;;;;;;;27.73;21.02;;;;;;;;;;4982723;29;20022;-77
2022/06/18 03:31:13;;;;;;;27.10;21.48;;;;;;;;;;4982370;28;20063;-77
2022/06/18 03:33:41;;;;;;;23.33;20.77;;;;;;;;;;4966137;29;20023;-77
2022/06/18 03:36:08;;;;;;;25.98;21.60;;;;;;;;;;4982199;28;20034;-77
2022/06/18 03:38:34;;;;;;;27.73;21.50;;;;;;;;;;4982351;28;20038;-77
2022/06/18 03:41:00;;;;;;;25.80;21.23;;;;;;;;;;4982538;29;20045;-77
2022/06/18 03:43:26;;;;;;;22.58;20.02;;;;;;;;;;4982499;28;20019;-77
2022/06/18 03:46:00;;;;;;;24.98;19.58;;;;;;;;;;4996612;28;20023;-77
2022/06/18 03:48:32;;;;;;;26.02;20.98;;;;;;;;;;5001724;28;20031;-77
2022/06/18 03:50:58;;;;;;;26.83;20.17;;;;;;;;;;4980632;29;20018;-77
2022/06/18 03:53:24;;;;;;;26.42;20.23;;;;;;;;;;4982176;28;20070;-77
2022/06/18 03:55:51;;;;;;;26.95;20.55;;;;;;;;;;4998289;28;20014;-77
2022/06/18 03:58:17;;;;;;;25.20;19.73;;;;;;;;;;5001454;28;20054;-77
2022/06/18 04:00:43;;;;;;;25.52;20.92;;;;;;;;;;5000503;28;20011;-77
2022/06/18 04:03:09;;;;;;;28.38;18.35;;;;;;;;;;5001522;28;20019;-78
2022/06/18 04:05:37;;;;;;;26.75;18.70;;;;;;;;;;4997881;28;20014;-78
2022/06/18 04:08:03;;;;;;;21.85;17.98;;;;;;;;;;4981987;29;20027;-78
2022/06/18 04:10:29;;;;;;;25.00;18.73;;;;;;;;;;4982001;29;20011;-78
2022/06/18 04:12:55;;;;;;;22.92;17.20;;;;;;;;;;4982010;29;20066;-78
2022/06/18 04:15:21;;;;;;;21.02;17.20;;;;;;;;;;4981664;28;20015;-78
2022/06/18 04:17:47;;;;;;;24.17;18.25;;;;;;;;;;5000150;28;20050;-78
2022/06/18 04:20:25;;;;;;;20.23;16.30;;;;;;;;;;4976975;28;20023;-80
2022/06/18 04:22:52;;;;;;;22.27;16.25;;;;;;;;;;4994101;28;20022;-80
2022/06/18 04:25:18;;;;;;;25.25;17.17;;;;;;;;;;4980705;29;20034;-80
2022/06/18 04:27:44;;;;;;;20.50;15.68;;;;;;;;;;4965257;29;20027;-80
2022/06/18 04:30:11;;;;;;;23.10;16.08;;;;;;;;;;4974349;28;20011;-80
2022/06/18 04:32:40;;;;;;;20.60;17.05;;;;;;;;;;4994679;28;20027;-78
2022/06/18 04:35:07;;;;;;;23.25;15.75;;;;;;;;;;4982057;28;20011;-78
2022/06/18 04:37:33;;;;;;;19.77;15.40;;;;;;;;;;4981491;29;20034;-78
2022/06/18 04:39:59;;;;;;;21.88;15.82;;;;;;;;;;4981565;29;20011;-78
2022/06/18 04:42:25;;;;;;;18.70;15.30;;;;;;;;;;4981527;29;20023;-78
2022/06/18 04:44:52;;;;;;;18.33;15.70;;;;;;;;;;4981523;29;20011;-78
2022/06/18 04:47:18;;;;;;;18.42;14.85;;;;;;;;;;4985644;28;20050;-78
2022/06/18 04:49:44;;;;;;;25.13;15.05;;;;;;;;;;4997936;28;20035;-78
2022/06/18 04:52:10;;;;;;;23.05;15.07;;;;;;;;;;4981370;28;20023;-78
2022/06/18 04:54:37;;;;;;;17.63;13.40;;;;;;;;;;4964825;29;20016;-80
2022/06/18 04:57:03;;;;;;;18.17;14.20;;;;;;;;;;4981226;29;20055;-78
2022/06/18 04:59:29;;;;;;;18.55;13.98;;;;;;;;;;4981190;29;20020;-78
2022/06/18 05:02:00;;;;;;;18.88;12.95;;;;;;;;;;4980991;28;20015;-80
2022/06/18 05:04:26;;;;;;;20.65;11.52;;;;;;;;;;4980932;28;20031;-78
2022/06/18 05:06:52;;;;;;;15.48;11.73;;;;;;;;;;4981188;29;20015;-79
2022/06/18 05:09:19;;;;;;;17.65;11.40;;;;;;;;;;4979275;29;20029;-78
2022/06/18 05:11:48;;;;;;;17.02;11.13;;;;;;;;;;4979730;28;20055;-79
2022/06/18 05:14:16;;;;;;;19.17;9.85;;;;;;;;;;4979687;28;20035;-79
2022/06/18 05:16:43;;;;;;;17.33;10.43;;;;;;;;;;4996508;28;20023;-79
2022/06/18 05:19:22;;;;;;;16.33;10.30;;;;;;;;;;4980537;28;20055;-79
2022/06/18 05:21:48;;;;;;;17.58;10.48;;;;;;;;;;4978784;28;20083;-79
2022/06/18 05:24:14;;;;;;;15.77;10.38;;;;;;;;;;4979695;28;20036;-79
2022/06/18 05:26:42;;;;;;;16.27;10.43;;;;;;;;;;4979522;28;20055;-79
2022/06/18 05:29:10;;;;;;;18.67;10.00;;;;;;;;;;4979642;28;20063;-79
2022/06/18 05:31:36;;;;;;;17.33;10.65;;;;;;;;;;4979208;28;20095;-79
2022/06/18 05:34:03;;;;;;;15.18;10.13;;;;;;;;;;4991006;28;20075;-79
2022/06/18 05:36:30;;;;;;;15.00;9.10;;;;;;;;;;4979137;28;20107;-77
2022/06/18 05:38:57;;;;;;;16.90;9.05;;;;;;;;;;4980340;28;20035;-79
2022/06/18 05:41:23;;;;;;;11.88;8.27;;;;;;;;;;4993277;28;20055;-79
2022/06/18 05:43:50;;;;;;;13.20;8.55;;;;;;;;;;5001597;28;20023;-79
2022/06/18 05:46:16;;;;;;;15.43;9.38;;;;;;;;;;4982955;28;20047;-79
2022/06/18 05:48:43;;;;;;;15.25;8.77;;;;;;;;;;4986296;28;20038;-79
2022/06/18 05:51:09;;;;;;;15.25;8.98;;;;;;;;;;4983198;28;20027;-79
2022/06/18 05:53:35;;;;;;;13.93;8.52;;;;;;;;;;4983136;28;20033;-78
2022/06/18 05:56:01;;;;;;;13.88;8.45;;;;;;;;;;4965621;28;20058;-77
2022/06/18 05:58:27;;;;;;;14.00;8.00;;;;;;;;;;4979461;28;20031;-80
2022/06/18 06:00:53;;;;;;;10.93;7.63;;;;;;;;;;4982803;28;20042;-79
2022/06/18 06:03:19;;;;;;;14.85;7.75;;;;;;;;;;4982704;28;20039;-80
2022/06/18 06:05:45;;;;;;;13.10;7.93;;;;;;;;;;4977574;28;20086;-80
2022/06/18 06:08:12;;;;;;;12.60;7.70;;;;;;;;;;4985413;28;20023;-79
2022/06/18 06:13:24;;;;;;;10.55;7.22;;;;;;;;;;5002117;28;20062;-79
2022/06/18 06:15:50;;;;;;;12.02;6.82;;;;;;;;;;5002007;28;20031;-79
2022/06/18 06:18:18;;;;;;;9.75;6.60;;;;;;;;;;4996198;28;20086;-79
2022/06/18 06:20:45;;;;;;;11.13;6.63;;;;;;;;;;4996247;28;20026;-80
2022/06/18 06:23:11;;;;;;;9.95;5.40;;;;;;;;;;5001958;28;20035;-79
2022/06/18 06:25:39;;;;;;;9.25;5.93;;;;;;;;;;4969048;28;20027;-79
2022/06/18 06:28:06;;;;;;;9.18;4.82;;;;;;;;;;4986910;28;20115;-79
2022/06/18 06:30:32;;;;;;;7.25;4.25;;;;;;;;;;4985128;28;20114;-79
2022/06/18 06:32:58;;;;;;;6.90;4.05;;;;;;;;;;4992533;28;20099;-79
2022/06/18 06:35:24;;;;;;;5.30;3.70;;;;;;;;;;4984086;28;20031;-79
2022/06/18 06:37:50;;;;;;;7.60;3.80;;;;;;;;;;4990192;28;20031;-79
2022/06/18 06:40:17;;;;;;;5.53;3.10;;;;;;;;;;4982232;28;20031;-79
2022/06/18 06:42:45;;;;;;;6.47;3.70;;;;;;;;;;4982963;28;20039;-79
2022/06/18 06:45:12;;;;;;;7.93;3.75;;;;;;;;;;4982119;28;20031;-79
2022/06/18 06:47:38;;;;;;;5.95;3.50;;;;;;;;;;4981913;28;20051;-78
2022/06/18 06:50:04;;;;;;;6.55;3.67;;;;;;;;;;4986725;28;20134;-79
2022/06/18 06:52:30;;;;;;;5.13;3.30;;;;;;;;;;4982191;28;20070;-79
2022/06/18 06:57:44;;;;;;;6.82;3.80;;;;;;;;;;4993615;28;20095;-77
2022/06/18 07:00:11;;;;;;;5.00;3.42;;;;;;;;;;4991847;28;20085;-79
2022/06/18 07:02:37;;;;;;;5.43;3.72;;;;;;;;;;4977696;28;20058;-78
2022/06/18 07:05:04;;;;;;;7.75;3.78;;;;;;;;;;4991738;28;20163;-78
2022/06/18 07:07:30;;;;;;;5.35;3.42;;;;;;;;;;4986933;28;20035;-75
2022/06/18 07:09:56;;;;;;;5.90;3.63;;;;;;;;;;4979600;28;20401;-77
2022/06/18 07:12:22;;;;;;;5.43;4.10;;;;;;;;;;4988535;28;20022;-75
2022/06/18 07:14:48;;;;;;;6.00;3.92;;;;;;;;;;4967660;28;20039;-78
2022/06/18 07:17:17;;;;;;;6.07;3.95;;;;;;;;;;4978166;28;20050;-76
2022/06/18 07:19:43;;;;;;;6.10;3.83;;;;;;;;;;4963585;28;20081;-76
2022/06/18 07:22:13;;;;;;;6.53;3.95;;;;;;;;;;4997308;28;20031;-78
2022/06/18 07:24:39;;;;;;;8.32;4.20;;;;;;;;;;4998319;28;20062;-74
2022/06/18 07:27:05;;;;;;;7.05;3.88;;;;;;;;;;4996383;28;20062;-74
2022/06/18 07:29:32;;;;;;;4.80;3.70;;;;;;;;;;4996375;28;20039;-76
2022/06/18 07:32:08;;;;;;;5.63;3.58;;;;;;;;;;4995173;28;20051;-76
2022/06/18 07:34:34;;;;;;;8.10;4.00;;;;;;;;;;4980733;28;20023;-78
2022/06/18 07:37:00;;;;;;;7.25;3.92;;;;;;;;;;4984455;28;20027;-76
2022/06/18 07:39:26;;;;;;;7.18;3.50;;;;;;;;;;4988643;28;20095;-77
2022/06/18 07:41:53;;;;;;;6.57;4.05;;;;;;;;;;4984292;28;20034;-75
2022/06/18 07:44:20;;;;;;;5.30;3.50;;;;;;;;;;5000397;28;20030;-77
2022/06/18 07:46:47;;;;;;;4.93;3.47;;;;;;;;;;4989802;28;20046;-83
2022/06/18 07:49:13;;;;;;;6.85;3.35;;;;;;;;;;4995204;28;20141;-78
2022/06/18 07:51:40;;;;;;;5.70;3.40;;;;;;;;;;4992951;28;20062;-77
2022/06/18 07:54:06;;;;;;;5.78;3.85;;;;;;;;;;4989685;28;20046;-76
2022/06/18 07:56:32;;;;;;;6.15;3.65;;;;;;;;;;4980768;29;20031;-76
2022/06/18 07:58:58;;;;;;;5.85;3.60;;;;;;;;;;4997864;28;20022;-77
2022/06/18 08:01:24;;;;;;;8.52;3.88;;;;;;;;;;4994703;28;20039;-77
2022/06/18 08:03:50;;;;;;;5.05;3.65;;;;;;;;;;4980463;28;20039;-77
2022/06/18 08:06:16;;;;;;;5.88;3.78;;;;;;;;;;4980521;28;20023;-77
2022/06/18 08:08:42;;;;;;;8.00;3.83;;;;;;;;;;4998481;28;20069;-77
2022/06/18 08:11:12;;;;;;;7.28;3.60;;;;;;;;;;4983324;28;20034;-77
2022/06/18 08:13:38;;;;;;;5.55;3.40;;;;;;;;;;4999900;28;20050;-77
2022/06/18 08:16:04;;;;;;;4.75;3.30;;;;;;;;;;4998977;28;20038;-77
2022/06/18 08:18:30;;;;;;;7.28;3.50;;;;;;;;;;4998117;28;20035;-77
2022/06/18 08:21:00;;;;;;;6.85;3.58;;;;;;;;;;4999924;28;20026;-77
2022/06/18 08:23:26;;;;;;;5.63;3.67;;;;;;;;;;4998958;28;20026;-77
2022/06/18 08:25:52;;;;;;;5.82;3.33;;;;;;;;;;4999786;28;20066;-77
2022/06/18 08:28:18;;;;;;;5.43;3.60;;;;;;;;;;4986702;28;20023;-77
2022/06/18 08:30:45;;;;;;;7.22;3.42;;;;;;;;;;4980208;28;20027;-77
2022/06/18 08:33:11;;;;;;;7.13;4.22;;;;;;;;;;4986224;28;20050;-77
2022/06/18 08:35:37;;;;;;;6.18;3.78;;;;;;;;;;4999565;28;20093;-77
2022/06/18 08:38:05;;;;;;;7.75;4.07;;;;;;;;;;4992910;28;20091;-77
2022/06/18 08:40:37;;;;;;;6.57;3.78;;;;;;;;;;4993555;28;20086;-77
2022/06/18 08:43:21;;;;;;;6.38;3.72;;;;;;;;;;4963865;28;20142;-78
2022/06/18 08:45:47;;;;;;;5.07;3.67;;;;;;;;;;4979603;28;20039;-77
2022/06/18 08:48:34;;;;;;;5.85;3.72;;;;;;;;;;4963717;28;20046;-78
2022/06/18 08:51:03;;;;;;;7.85;3.80;;;;;;;;;;4979729;28;20039;-77
2022/06/18 08:53:38;;;;;;;6.63;3.50;;;;;;;;;;4979464;28;20023;-76
2022/06/18 08:56:15;;;;;;;6.15;3.30;;;;;;;;;;4990707;28;20037;-77
2022/06/18 08:58:41;;;;;;;5.63;3.40;;;;;;;;;;4963539;28;20031;-77
2022/06/18 09:01:19;;;;;;;7.07;3.47;;;;;;;;;;4971032;28;20046;-77
2022/06/18 09:03:48;;;;;;;5.75;3.30;;;;;;;;;;4963361;28;20112;-77
2022/06/18 09:06:17;;;;;;;6.15;3.20;;;;;;;;;;4963279;28;20063;-77
2022/06/18 09:08:52;;;;;;;9.38;3.88;;;;;;;;;;4984903;28;20022;-76
2022/06/18 09:11:21;;;;;;;5.75;3.13;;;;;;;;;;4983945;28;20027;-77
2022/06/18 09:13:54;;;;;;;7.82;3.85;;;;;;;;;;4982302;28;20033;-77
2022/06/18 09:16:22;;;;;;;6.10;3.65;;;;;;;;;;4999186;28;20091;-77
2022/06/18 09:18:50;;;;;;;9.45;3.50;;;;;;;;;;5002920;28;20038;-76
2022/06/18 09:21:22;;;;;;;6.57;3.83;;;;;;;;;;4970328;28;20035;-77
2022/06/18 09:24:06;;;;;;;6.13;3.40;;;;;;;;;;4996349;28;20070;-76
2022/06/18 09:26:35;;;;;;;6.30;3.10;;;;;;;;;;4983737;28;20083;-77
2022/06/18 09:29:06;;;;;;;5.40;2.70;;;;;;;;;;4983545;29;20050;-77
2022/06/18 09:31:36;;;;;;;4.75;2.50;;;;;;;;;;4951273;28;20066;-77
2022/06/18 09:34:12;;;;;;;5.05;2.38;;;;;;;;;;4983628;28;20078;-76
2022/06/18 09:36:41;;;;;;;4.63;2.53;;;;;;;;;;4983450;28;20090;-76
2022/06/18 09:39:19;;;;;;;4.50;2.33;;;;;;;;;;4967861;28;20035;-76
2022/06/18 09:41:53;;;;;;;4.88;2.50;;;;;;;;;;4996566;28;20051;-77
2022/06/18 09:44:22;;;;;;;5.47;2.75;;;;;;;;;;4990247;28;20038;-75
2022/06/18 09:46:57;;;;;;;5.50;2.72;;;;;;;;;;4983388;28;20051;-75
2022/06/18 09:49:23;;;;;;;4.65;2.50;;;;;;;;;;4997838;28;20031;-77
2022/06/18 09:52:06;;;;;;;6.18;2.78;;;;;;;;;;4983136;28;20090;-77
2022/06/18 09:54:37;;;;;;;6.32;2.70;;;;;;;;;;4998865;28;20777;-75
2022/06/18 09:57:04;;;;;;;6.50;2.85;;;;;;;;;;4966424;28;20046;-75
2022/06/18 09:59:39;;;;;;;5.75;2.70;;;;;;;;;;4982668;28;20104;-76
2022/06/18 10:02:17;;;;;;;8.10;3.20;;;;;;;;;;4987438;28;20027;-77
2022/06/18 10:07:32;;;;;;;4.38;2.70;;;;;;;;;;4965917;28;20047;-77
2022/06/18 10:10:05;;;;;;;5.25;2.80;;;;;;;;;;4982771;29;20031;-77
2022/06/18 10:12:35;;;;;;;4.35;2.75;;;;;;;;;;4982844;28;20023;-77
2022/06/18 10:15:07;;;;;;;6.45;2.78;;;;;;;;;;4978366;28;20054;-76
2022/06/18 10:17:42;;;;;;;5.60;2.75;;;;;;;;;;4973991;28;20039;-77
2022/06/18 10:20:17;;;;;;;5.63;2.50;;;;;;;;;;4966231;28;20062;-76
2022/06/18 10:23:09;;;;;;;4.50;2.40;;;;;;;;;;4975468;28;20114;-77
2022/06/18 10:25:42;;;;;;;6.20;2.60;;;;;;;;;;4981182;28;20071;-76
2022/06/18 10:28:20;;;;;;;5.80;2.58;;;;;;;;;;4982418;28;20043;-76
2022/06/18 10:30:49;;;;;;;4.55;2.20;;;;;;;;;;4978569;28;20059;-77
2022/06/18 10:33:15;;;;;;;5.78;2.60;;;;;;;;;;4981832;28;20041;-76
2022/06/18 10:35:51;;;;;;;8.68;2.50;;;;;;;;;;4965948;29;20050;-77
2022/06/18 10:38:20;;;;;;;6.85;2.55;;;;;;;;;;4982094;28;20031;-77
2022/06/18 10:41:05;;;;;;;4.97;2.38;;;;;;;;;;4965718;28;20039;-76
2022/06/18 10:43:56;;;;;;;6.95;3.08;;;;;;;;;;4965775;28;20051;-77
2022/06/18 10:46:22;;;;;;;6.95;3.00;;;;;;;;;;4967844;28;20035;-77
2022/06/18 10:48:53;;;;;;;6.65;2.75;;;;;;;;;;4968150;28;20078;-77
2022/06/18 10:51:24;;;;;;;7.07;3.25;;;;;;;;;;4981766;28;20079;-75
2022/06/18 10:53:54;;;;;;;9.73;3.30;;;;;;;;;;4981938;29;20065;-76
2022/06/18 10:56:24;;;;;;;9.20;2.65;;;;;;;;;;4982103;29;20027;-77
2022/06/18 10:58:52;;;;;;;6.40;2.33;;;;;;;;;;4995157;28;20041;-76
2022/06/18 11:01:21;;;;;;;5.38;2.35;;;;;;;;;;4967751;28;20026;-77
2022/06/18 11:03:55;;;;;;;4.88;2.22;;;;;;;;;;4997167;28;20096;-77
2022/06/18 11:06:22;;;;;;;7.18;2.63;;;;;;;;;;4981611;28;20035;-77
2022/06/18 11:08:54;;;;;;;10.20;2.42;;;;;;;;;;4986899;28;20035;-76
2022/06/18 11:11:21;;;;;;;8.57;2.55;;;;;;;;;;5001234;28;20046;-76
2022/06/18 11:13:49;;;;;;;7.78;2.67;;;;;;;;;;4994037;28;20023;-77
2022/06/18 11:16:15;;;;;;;5.72;2.60;;;;;;;;;;4981588;28;20027;-77
2022/06/18 11:18:50;;;;;;;7.95;2.95;;;;;;;;;;5000462;28;20027;-77
2022/06/18 11:21:28;;;;;;;6.47;3.00;;;;;;;;;;5001080;28;20051;-77
2022/06/18 11:23:56;;;;;;;9.38;3.05;;;;;;;;;;4992412;28;20577;-76
2022/06/18 11:26:23;;;;;;;7.28;2.80;;;;;;;;;;4964856;28;20218;-77
2022/06/18 11:28:52;;;;;;;7.43;3.20;;;;;;;;;;4998885;28;20033;-77
2022/06/18 11:31:23;;;;;;;9.85;3.17;;;;;;;;;;4984262;28;20066;-77
2022/06/18 11:33:55;;;;;;;7.53;2.90;;;;;;;;;;4965218;28;20058;-77
2022/06/18 11:36:31;;;;;;;8.82;3.20;;;;;;;;;;4964441;28;20042;-77
2022/06/18 11:38:59;;;;;;;8.75;3.42;;;;;;;;;;4981321;29;20031;-76
2022/06/18 11:41:45;;;;;;;10.75;3.30;;;;;;;;;;4986475;28;20033;-77
2022/06/18 11:44:23;;;;;;;11.68;3.30;;;;;;;;;;5000611;28;20027;-77
2022/06/18 11:47:10;;;;;;;9.57;2.88;;;;;;;;;;4982393;28;20090;-76
2022/06/18 11:49:48;;;;;;;12.43;3.47;;;;;;;;;;4964373;28;20086;-77
2022/06/18 11:52:38;;;;;;;10.93;2.85;;;;;;;;;;4955090;28;20108;-77
2022/06/18 11:55:11;;;;;;;8.45;3.00;;;;;;;;;;4982654;28;20031;-76
2022/06/18 11:57:42;;;;;;;9.98;3.20;;;;;;;;;;4961702;28;20057;-77
2022/06/18 12:00:15;;;;;;;8.13;2.85;;;;;;;;;;4984994;28;20086;-76
2022/06/18 12:02:46;;;;;;;8.98;2.70;;;;;;;;;;4980723;29;20027;-76
2022/06/18 12:05:14;;;;;;;10.57;3.40;;;;;;;;;;4980018;28;21363;-77
2022/06/18 12:07:43;;;;;;;10.15;2.85;;;;;;;;;;4980738;28;20051;-75
2022/06/18 12:10:12;;;;;;;13.48;3.60;;;;;;;;;;4987842;28;20031;-78
2022/06/18 12:12:38;;;;;;;12.82;3.40;;;;;;;;;;4978623;28;20067;-77
2022/06/18 12:15:04;;;;;;;11.90;3.45;;;;;;;;;;4980564;28;20087;-78
2022/06/18 12:17:49;;;;;;;9.57;3.40;;;;;;;;;;4980255;28;20046;-77
2022/06/18 12:20:24;;;;;;;9.25;3.00;;;;;;;;;;4963771;28;20035;-77
2022/06/18 12:23:07;;;;;;;11.98;3.75;;;;;;;;;;4990028;28;20023;-77
2022/06/18 12:25:33;;;;;;;8.27;2.85;;;;;;;;;;4988132;28;20034;-77
2022/06/18 12:28:11;;;;;;;10.05;3.20;;;;;;;;;;4986970;28;20031;-78
2022/06/18 12:30:40;;;;;;;10.48;3.30;;;;;;;;;;4980328;28;20039;-77
2022/06/18 12:33:06;;;;;;;7.85;2.53;;;;;;;;;;4985408;28;20047;-77
2022/06/18 12:35:35;;;;;;;10.55;2.72;;;;;;;;;;4999637;28;20038;-77
2022/06/18 12:38:20;;;;;;;8.15;3.05;;;;;;;;;;4984331;28;20102;-77
2022/06/18 12:40:46;;;;;;;10.15;3.28;;;;;;;;;;4987794;28;20099;-77
2022/06/18 12:43:18;;;;;;;10.45;3.65;;;;;;;;;;4980119;28;20024;-77
2022/06/18 12:46:20;;;;;;;9.05;2.55;;;;;;;;;;4979684;28;20042;-77
2022/06/18 12:49:03;;;;;;;10.65;3.17;;;;;;;;;;4887518;29;20060;-78
2022/06/18 12:51:44;;;;;;;11.45;2.67;;;;;;;;;;4913665;29;20036;-77
2022/06/18 12:54:24;;;;;;;8.88;2.78;;;;;;;;;;4907528;29;20039;-77
2022/06/18 12:57:08;;;;;;;14.43;3.50;;;;;;;;;;4914477;29;20056;-77
2022/06/18 12:59:34;;;;;;;9.55;3.40;;;;;;;;;;4898821;29;20043;-76
2022/06/18 13:02:08;;;;;;;10.93;3.38;;;;;;;;;;4899502;29;20045;-75
2022/06/18 13:04:33;;;;;;;12.95;4.28;;;;;;;;;;4918418;29;20052;-76
2022/06/18 13:07:02;;;;;;;9.50;3.20;;;;;;;;;;4908721;29;20052;-75
2022/06/18 13:09:34;;;;;;;10.68;3.65;;;;;;;;;;4893401;29;20052;-78
2022/06/18 13:12:00;;;;;;;13.57;3.30;;;;;;;;;;4909974;29;20085;-75
2022/06/18 13:14:45;;;;;;;10.77;3.20;;;;;;;;;;4901143;29;20040;-75
2022/06/18 13:17:14;;;;;;;11.93;3.47;;;;;;;;;;4915189;29;20077;-75
2022/06/18 13:19:42;;;;;;;7.45;2.70;;;;;;;;;;4910819;29;20049;-75
2022/06/18 13:22:09;;;;;;;10.73;4.05;;;;;;;;;;4926163;29;20070;-75
2022/06/18 13:28:10;;;;;;;11.13;3.83;;;;;;;;;;4990948;28;20106;-75
2022/06/18 13:30:46;;;;;;;12.07;3.53;;;;;;;;;;4974952;28;20453;-76
2022/06/18 13:33:18;;;;;;;10.52;3.47;;;;;;;;;;4975670;28;20122;-74
2022/06/18 13:35:48;;;;;;;12.50;4.07;;;;;;;;;;4963152;28;20528;-75
2022/06/18 13:38:19;;;;;;;12.65;3.42;;;;;;;;;;4976842;28;20043;-75
2022/06/18 13:41:15;;;;;;;10.50;3.10;;;;;;;;;;4960734;29;20071;-75
2022/06/18 13:44:00;;;;;;;10.25;3.58;;;;;;;;;;4953114;29;20055;-74
2022/06/18 13:46:33;;;;;;;9.48;3.53;;;;;;;;;;4989536;28;20054;-75
2022/06/18 13:49:11;;;;;;;9.70;3.38;;;;;;;;;;4985024;28;20051;-76
2022/06/18 13:51:38;;;;;;;9.75;3.45;;;;;;;;;;4990152;28;20043;-74
2022/06/18 13:54:14;;;;;;;9.60;3.15;;;;;;;;;;4993046;28;20057;-74
2022/06/18 13:56:43;;;;;;;12.70;3.28;;;;;;;;;;4984889;28;20067;-75
2022/06/18 13:59:19;;;;;;;9.25;3.20;;;;;;;;;;4975249;28;20070;-76
2022/06/18 14:01:56;;;;;;;10.13;3.10;;;;;;;;;;4987807;28;20050;-75
2022/06/18 14:04:24;;;;;;;10.38;3.20;;;;;;;;;;4968515;28;20079;-75
2022/06/18 14:06:53;;;;;;;8.68;2.95;;;;;;;;;;4954064;28;20035;-75
2022/06/18 14:09:22;;;;;;;10.07;3.13;;;;;;;;;;5001274;28;20045;-75
2022/06/18 14:12:00;;;;;;;12.02;3.35;;;;;;;;;;4993920;28;20175;-75
2022/06/18 14:14:36;;;;;;;9.18;3.67;;;;;;;;;;4996892;28;20062;-75
2022/06/18 14:17:13;;;;;;;11.88;3.15;;;;;;;;;;4959256;29;20071;-75
2022/06/18 14:19:44;;;;;;;11.80;3.45;;;;;;;;;;4959430;28;20061;-75
2022/06/18 14:22:10;;;;;;;14.93;3.55;;;;;;;;;;4977702;28;20460;-75
2022/06/18 14:24:37;;;;;;;10.35;3.42;;;;;;;;;;4968535;28;20086;-75
2022/06/18 14:27:03;;;;;;;10.38;3.20;;;;;;;;;;4980061;28;20054;-75
2022/06/18 14:29:38;;;;;;;9.68;3.03;;;;;;;;;;4981588;28;20050;-75
2022/06/18 14:32:04;;;;;;;;;;;;;;;;;;4982150;28;20049;-74
2022/06/18 14:34:53;;;;;;;9.57;3.38;;;;;;;;;;4968014;28;19965;-75
2022/06/18 14:37:19;;;;;;;12.20;3.22;;;;;;;;;;4985092;28;20070;-75
2022/06/18 14:39:48;;;;;;;9.05;2.97;;;;;;;;;;4961320;29;20047;-75
2022/06/18 14:42:20;;;;;;;10.40;2.80;;;;;;;;;;4954999;29;20105;-76
2022/06/18 14:44:55;;;;;;;11.73;3.22;;;;;;;;;;4953431;28;20109;-75
2022/06/18 14:47:21;;;;;;;10.73;3.15;;;;;;;;;;4960435;28;20054;-74
2022/06/18 14:50:12;;;;;;;12.15;4.95;;;;;;;;;;4990108;28;20057;-74
2022/06/18 14:52:58;;;;;;;11.70;3.20;;;;;;;;;;4942264;29;20073;-73
2022/06/18 14:55:27;;;;;;;12.30;3.30;;;;;;;;;;4953921;29;20059;-75
2022/06/18 14:58:13;;;;;;;10.63;3.50;;;;;;;;;;4974945;29;20054;-75
2022/06/18 15:00:39;;;;;;;;;;;;;;;;;;4976844;29;20099;-74
2022/06/18 15:03:10;;;;;;;12.93;3.35;;;;;;;;;;4976834;29;19923;-74
2022/06/18 15:05:40;;;;;;;12.93;3.65;;;;;;;;;;4943782;28;20074;-74
2022/06/18 15:08:10;;;;;;;12.10;3.50;;;;;;;;;;4974868;29;20113;-75